Time;durP1;ratioP1;P1;durP2;ratioP2;P2;SDS_P1;SDS_P2;PMS_P1;PMS_P2;Temp;Humidity;BMP_temperature;BMP_pressure;BME280_temperature;BME280_humidity;BME280_pressure;Samples;Min_cycle;Max_cycle;Signal;HPM_P1;HPM_P2
2024/04/08 00:00:31;;;;;;;15.35;2.58;;;;;;;;;;5016268;28;20050;-67
2024/04/08 00:02:58;;;;;;;13.13;2.40;;;;;;;;;;5012119;28;20434;-66
2024/04/08 00:05:24;;;;;;;8.10;2.15;;;;;;;;;;5010750;28;20052;-67
2024/04/08 00:07:53;;;;;;;9.95;2.30;;;;;;;;;;5011189;28;20382;-67
2024/04/08 00:10:20;;;;;;;11.32;2.33;;;;;;;;;;5011117;28;20034;-67
2024/04/08 00:12:46;;;;;;;16.05;2.70;;;;;;;;;;5006956;28;20034;-67
2024/04/08 00:15:14;;;;;;;13.95;2.88;;;;;;;;;;4992428;28;20026;-66
2024/04/08 00:17:41;;;;;;;9.35;2.08;;;;;;;;;;5011590;28;20041;-68
2024/04/08 00:20:09;;;;;;;12.57;2.40;;;;;;;;;;5027735;28;20049;-67
2024/04/08 00:22:35;;;;;;;7.97;2.13;;;;;;;;;;5009237;28;20050;-68
2024/04/08 00:25:01;;;;;;;9.88;2.13;;;;;;;;;;5011548;28;20034;-67
2024/04/08 00:27:28;;;;;;;16.38;2.53;;;;;;;;;;5009450;28;20041;-67
2024/04/08 00:29:55;;;;;;;14.70;2.67;;;;;;;;;;5013891;28;20037;-67
2024/04/08 00:32:21;;;;;;;7.25;1.95;;;;;;;;;;5013920;28;20060;-67
2024/04/08 00:34:47;;;;;;;13.25;2.70;;;;;;;;;;5016037;28;20053;-67
2024/04/08 00:37:13;;;;;;;8.85;2.47;;;;;;;;;;5010740;28;20469;-67
2024/04/08 00:39:39;;;;;;;9.65;2.28;;;;;;;;;;5013731;28;20390;-68
2024/04/08 00:42:05;;;;;;;11.57;2.72;;;;;;;;;;5008946;28;20042;-68
2024/04/08 00:44:31;;;;;;;12.95;2.90;;;;;;;;;;5010187;28;20049;-68
2024/04/08 00:46:59;;;;;;;13.10;2.53;;;;;;;;;;5010368;28;20046;-68
2024/04/08 00:49:28;;;;;;;11.82;2.22;;;;;;;;;;5012164;28;20053;-68
2024/04/08 00:51:56;;;;;;;9.73;2.30;;;;;;;;;;5007767;28;20069;-67
2024/04/08 00:54:25;;;;;;;8.25;2.15;;;;;;;;;;5010405;28;20038;-68
2024/04/08 00:56:55;;;;;;;16.17;2.13;;;;;;;;;;5009460;28;20411;-67
2024/04/08 00:59:22;;;;;;;11.52;2.10;;;;;;;;;;5006480;28;20381;-67
2024/04/08 01:01:49;;;;;;;16.92;2.28;;;;;;;;;;5007746;28;20437;-67
2024/04/08 01:04:15;;;;;;;9.77;2.35;;;;;;;;;;5009426;28;20061;-68
2024/04/08 01:06:42;;;;;;;9.80;2.20;;;;;;;;;;5008025;28;20049;-68
2024/04/08 01:09:08;;;;;;;20.73;2.92;;;;;;;;;;5010027;28;20065;-67
2024/04/08 01:11:35;;;;;;;15.32;2.53;;;;;;;;;;5009968;28;20046;-67
2024/04/08 01:14:02;;;;;;;13.18;2.22;;;;;;;;;;5011104;28;20045;-67
2024/04/08 01:16:28;;;;;;;10.25;2.47;;;;;;;;;;5011155;28;20046;-67
2024/04/08 01:18:54;;;;;;;16.85;2.00;;;;;;;;;;5009303;28;20126;-67
2024/04/08 01:21:20;;;;;;;11.98;2.17;;;;;;;;;;5008770;28;20052;-68
2024/04/08 01:23:46;;;;;;;14.18;1.85;;;;;;;;;;5012731;28;20041;-67
2024/04/08 01:26:12;;;;;;;9.52;1.83;;;;;;;;;;5011885;28;20038;-67
2024/04/08 01:28:39;;;;;;;14.13;2.38;;;;;;;;;;5009164;28;20038;-68
2024/04/08 01:31:06;;;;;;;12.63;2.33;;;;;;;;;;5003691;28;20045;-66
2024/04/08 01:33:32;;;;;;;13.57;2.00;;;;;;;;;;5013189;28;20058;-67
2024/04/08 01:36:00;;;;;;;15.82;2.53;;;;;;;;;;5009967;28;20026;-67
2024/04/08 01:38:27;;;;;;;11.13;2.65;;;;;;;;;;5012235;28;20042;-67
2024/04/08 01:40:53;;;;;;;13.07;2.38;;;;;;;;;;4993382;28;20034;-67
2024/04/08 01:43:20;;;;;;;20.23;3.38;;;;;;;;;;5007879;28;20030;-67
2024/04/08 01:45:46;;;;;;;10.50;2.08;;;;;;;;;;5011049;28;20034;-67
2024/04/08 01:48:12;;;;;;;17.58;3.35;;;;;;;;;;5010514;28;20033;-67
2024/04/08 01:50:38;;;;;;;14.10;2.95;;;;;;;;;;5019266;28;20045;-67
2024/04/08 01:53:04;;;;;;;14.40;2.92;;;;;;;;;;5012255;28;20052;-67
2024/04/08 01:55:30;;;;;;;14.77;1.95;;;;;;;;;;5008611;28;20041;-67
2024/04/08 01:57:57;;;;;;;12.55;2.38;;;;;;;;;;5007720;28;20040;-66
2024/04/08 02:00:23;;;;;;;9.27;2.45;;;;;;;;;;5006961;28;21623;-67
2024/04/08 02:02:50;;;;;;;12.02;2.40;;;;;;;;;;5009410;28;20029;-66
2024/04/08 02:05:16;;;;;;;15.60;2.53;;;;;;;;;;5007901;28;20428;-68
2024/04/08 02:07:43;;;;;;;8.25;1.70;;;;;;;;;;5009654;28;20061;-67
2024/04/08 02:10:09;;;;;;;11.65;2.30;;;;;;;;;;5009252;28;20137;-68
2024/04/08 02:12:36;;;;;;;12.88;2.72;;;;;;;;;;5007709;28;20424;-68
2024/04/08 02:15:02;;;;;;;16.08;2.80;;;;;;;;;;5007243;28;20072;-67
2024/04/08 02:17:30;;;;;;;16.00;2.38;;;;;;;;;;5007346;28;20049;-68
2024/04/08 02:19:56;;;;;;;14.38;2.72;;;;;;;;;;5008878;28;20042;-68
2024/04/08 02:22:22;;;;;;;21.23;3.03;;;;;;;;;;5007325;28;20054;-68
2024/04/08 02:24:48;;;;;;;11.60;2.17;;;;;;;;;;5010090;28;20050;-68
2024/04/08 02:27:14;;;;;;;13.32;2.30;;;;;;;;;;5007935;28;20045;-67
2024/04/08 02:29:41;;;;;;;10.15;2.33;;;;;;;;;;5010361;28;20045;-69
2024/04/08 02:32:08;;;;;;;12.63;2.15;;;;;;;;;;5007928;28;20042;-68
2024/04/08 02:34:34;;;;;;;14.35;2.40;;;;;;;;;;5007794;28;20045;-67
2024/04/08 02:37:00;;;;;;;12.32;2.85;;;;;;;;;;5009287;28;20401;-68
2024/04/08 02:39:26;;;;;;;11.63;2.40;;;;;;;;;;5008586;28;20075;-68
2024/04/08 02:41:52;;;;;;;8.48;2.00;;;;;;;;;;5010649;28;20065;-70
2024/04/08 02:44:18;;;;;;;14.30;2.95;;;;;;;;;;5008113;28;20046;-68
2024/04/08 02:46:44;;;;;;;15.10;2.83;;;;;;;;;;5008458;28;20459;-67
2024/04/08 02:49:10;;;;;;;9.82;2.40;;;;;;;;;;5011791;28;20025;-67
2024/04/08 02:51:37;;;;;;;18.20;2.70;;;;;;;;;;5014782;28;20137;-67
2024/04/08 02:54:03;;;;;;;13.15;2.50;;;;;;;;;;5003937;28;20042;-67
2024/04/08 02:56:29;;;;;;;17.05;2.50;;;;;;;;;;5000830;28;20042;-66
2024/04/08 02:58:55;;;;;;;19.08;3.05;;;;;;;;;;5012840;28;20037;-66
2024/04/08 03:01:21;;;;;;;16.65;2.65;;;;;;;;;;5006531;28;20049;-66
2024/04/08 03:03:47;;;;;;;15.35;2.55;;;;;;;;;;5007240;28;20029;-67
2024/04/08 03:06:15;;;;;;;17.00;2.17;;;;;;;;;;5008380;28;20053;-67
2024/04/08 03:08:42;;;;;;;13.00;2.72;;;;;;;;;;5009796;28;20385;-67
2024/04/08 03:11:09;;;;;;;18.77;3.83;;;;;;;;;;5008222;28;20432;-67
2024/04/08 03:13:36;;;;;;;12.80;2.72;;;;;;;;;;5008031;28;20147;-67
2024/04/08 03:16:02;;;;;;;20.00;2.75;;;;;;;;;;5008710;28;20048;-67
2024/04/08 03:18:28;;;;;;;13.40;3.42;;;;;;;;;;5009684;28;20061;-66
2024/04/08 03:20:59;;;;;;;12.18;3.28;;;;;;;;;;5007975;28;20473;-67
2024/04/08 03:23:25;;;;;;;15.00;3.17;;;;;;;;;;5007972;28;20046;-67
2024/04/08 03:26:01;;;;;;;9.75;2.85;;;;;;;;;;5012296;28;20038;-67
2024/04/08 03:28:28;;;;;;;10.80;2.60;;;;;;;;;;5014213;28;20052;-67
2024/04/08 03:30:55;;;;;;;13.38;2.40;;;;;;;;;;4998224;28;20393;-68
2024/04/08 03:33:23;;;;;;;10.07;2.17;;;;;;;;;;5017401;28;20404;-67
2024/04/08 03:35:50;;;;;;;15.18;2.78;;;;;;;;;;5011680;28;20856;-68
2024/04/08 03:38:16;;;;;;;15.35;2.53;;;;;;;;;;5014429;28;20528;-67
2024/04/08 03:40:43;;;;;;;12.63;2.70;;;;;;;;;;5005384;28;20041;-67
2024/04/08 03:43:10;;;;;;;13.10;2.03;;;;;;;;;;4996027;28;20034;-67
2024/04/08 03:45:38;;;;;;;15.52;2.40;;;;;;;;;;5015779;28;20671;-68
2024/04/08 03:48:05;;;;;;;15.82;2.85;;;;;;;;;;5011997;28;20033;-67
2024/04/08 03:50:37;;;;;;;16.17;2.90;;;;;;;;;;5012440;28;20050;-67
2024/04/08 03:53:03;;;;;;;17.17;5.28;;;;;;;;;;5016214;28;20037;-66
2024/04/08 03:55:30;;;;;;;15.40;3.38;;;;;;;;;;5007690;28;20046;-66
2024/04/08 03:57:57;;;;;;;11.45;2.33;;;;;;;;;;5017272;28;20045;-67
2024/04/08 04:00:26;;;;;;;8.90;2.20;;;;;;;;;;5010930;28;20050;-65
2024/04/08 04:02:52;;;;;;;18.65;3.38;;;;;;;;;;5011349;28;20045;-66
2024/04/08 04:05:19;;;;;;;13.98;3.88;;;;;;;;;;5010183;28;20049;-66
2024/04/08 04:07:45;;;;;;;17.63;2.67;;;;;;;;;;5011983;28;20113;-67
2024/04/08 04:10:12;;;;;;;12.48;2.67;;;;;;;;;;5009543;28;20042;-67
2024/04/08 04:12:38;;;;;;;8.90;2.38;;;;;;;;;;5009458;28;20045;-67
2024/04/08 04:15:12;;;;;;;8.85;2.25;;;;;;;;;;5013856;28;20486;-68
2024/04/08 04:17:39;;;;;;;11.52;2.15;;;;;;;;;;4991996;28;20042;-67
2024/04/08 04:20:09;;;;;;;7.70;2.15;;;;;;;;;;5012885;28;20416;-68
2024/04/08 04:22:36;;;;;;;8.52;2.47;;;;;;;;;;5013787;28;20482;-68
2024/04/08 04:25:03;;;;;;;11.38;2.38;;;;;;;;;;5009607;28;20354;-67
2024/04/08 04:27:29;;;;;;;15.02;3.65;;;;;;;;;;5011312;28;20050;-67
2024/04/08 04:29:56;;;;;;;15.15;2.53;;;;;;;;;;5016042;28;20505;-67
2024/04/08 04:32:22;;;;;;;8.13;2.53;;;;;;;;;;5014012;28;20045;-67
2024/04/08 04:34:55;;;;;;;12.93;2.70;;;;;;;;;;5010424;28;20038;-67
2024/04/08 04:37:22;;;;;;;16.42;4.82;;;;;;;;;;5012908;28;20037;-66
2024/04/08 04:39:48;;;;;;;21.55;4.55;;;;;;;;;;5008871;28;20057;-68
2024/04/08 04:42:14;;;;;;;14.32;2.70;;;;;;;;;;5015579;28;20057;-67
2024/04/08 04:44:40;;;;;;;9.38;2.10;;;;;;;;;;5010176;28;20037;-69
2024/04/08 04:47:06;;;;;;;12.10;3.22;;;;;;;;;;5017346;28;20586;-68
2024/04/08 04:49:33;;;;;;;16.55;2.95;;;;;;;;;;5012058;28;20044;-69
2024/04/08 04:51:59;;;;;;;12.60;2.42;;;;;;;;;;5011845;28;20430;-67
2024/04/08 04:54:25;;;;;;;19.10;2.58;;;;;;;;;;5012041;28;20117;-67
2024/04/08 04:56:51;;;;;;;10.48;2.83;;;;;;;;;;5010484;28;20026;-67
2024/04/08 04:59:17;;;;;;;16.63;3.08;;;;;;;;;;5009086;28;20061;-62
2024/04/08 05:01:43;;;;;;;14.98;2.65;;;;;;;;;;5008587;28;20048;-62
2024/04/08 05:04:09;;;;;;;12.23;2.58;;;;;;;;;;5009657;28;20049;-63
2024/04/08 05:06:35;;;;;;;15.05;2.30;;;;;;;;;;5008462;28;20061;-63
2024/04/08 05:09:02;;;;;;;17.67;3.40;;;;;;;;;;5010723;28;20044;-62
2024/04/08 05:11:28;;;;;;;16.80;2.67;;;;;;;;;;5008167;28;20038;-62
2024/04/08 05:13:54;;;;;;;11.73;3.25;;;;;;;;;;5009142;28;20437;-62
2024/04/08 05:16:21;;;;;;;13.20;3.00;;;;;;;;;;5012253;28;20041;-63
2024/04/08 05:18:47;;;;;;;14.95;2.42;;;;;;;;;;5011573;28;20041;-63
2024/04/08 05:21:13;;;;;;;16.55;3.63;;;;;;;;;;5009992;28;20649;-62
2024/04/08 05:23:39;;;;;;;11.02;2.75;;;;;;;;;;5012688;28;20377;-63
2024/04/08 05:26:05;;;;;;;11.48;2.70;;;;;;;;;;5007655;28;20394;-63
2024/04/08 05:28:31;;;;;;;9.98;2.50;;;;;;;;;;5012872;28;20042;-63
2024/04/08 05:30:57;;;;;;;14.43;2.72;;;;;;;;;;5009123;28;20121;-63
2024/04/08 05:33:23;;;;;;;8.98;2.10;;;;;;;;;;5006019;28;20058;-63
2024/04/08 05:35:50;;;;;;;11.05;2.25;;;;;;;;;;5023324;28;20386;-65
2024/04/08 05:38:16;;;;;;;13.27;2.35;;;;;;;;;;5007194;28;20378;-63
2024/04/08 05:40:42;;;;;;;19.23;4.75;;;;;;;;;;5011319;28;20042;-63
2024/04/08 05:43:10;;;;;;;13.73;3.72;;;;;;;;;;5007763;28;20042;-62
2024/04/08 05:45:36;;;;;;;14.25;3.83;;;;;;;;;;5012432;28;20050;-64
2024/04/08 05:48:04;;;;;;;9.20;2.28;;;;;;;;;;5008668;28;20053;-63
2024/04/08 05:50:30;;;;;;;12.88;2.58;;;;;;;;;;5011045;28;20042;-63
2024/04/08 05:52:56;;;;;;;8.05;2.20;;;;;;;;;;5013486;28;20120;-62
2024/04/08 05:55:22;;;;;;;14.45;4.85;;;;;;;;;;5009027;28;20049;-62
2024/04/08 05:57:48;;;;;;;7.72;2.72;;;;;;;;;;5008589;28;20052;-63
2024/04/08 06:00:20;;;;;;;11.48;2.65;;;;;;;;;;5009197;28;20046;-62
2024/04/08 06:02:49;;;;;;;16.23;2.28;;;;;;;;;;5006396;28;20045;-63
2024/04/08 06:05:20;;;;;;;13.02;2.25;;;;;;;;;;5010055;28;20038;-63
2024/04/08 06:07:48;;;;;;;9.00;2.05;;;;;;;;;;5006128;28;20069;-63
2024/04/08 06:10:30;;;;;;;7.90;1.92;;;;;;;;;;5010915;28;20417;-63
2024/04/08 06:13:00;;;;;;;10.60;2.13;;;;;;;;;;5009910;28;20041;-63
2024/04/08 06:15:26;;;;;;;5.95;1.65;;;;;;;;;;5008867;28;20060;-63
2024/04/08 06:17:52;;;;;;;10.07;1.98;;;;;;;;;;5007749;28;20045;-63
2024/04/08 06:20:18;;;;;;;9.43;1.75;;;;;;;;;;5009036;28;20397;-63
2024/04/08 06:22:45;;;;;;;8.38;1.63;;;;;;;;;;5010013;28;20042;-63
2024/04/08 06:25:11;;;;;;;7.43;2.13;;;;;;;;;;5011678;28;20057;-63
2024/04/08 06:27:37;;;;;;;9.60;1.85;;;;;;;;;;5006663;28;20370;-63
2024/04/08 06:30:04;;;;;;;8.13;2.58;;;;;;;;;;5014031;28;20056;-63
2024/04/08 06:32:31;;;;;;;11.90;1.88;;;;;;;;;;5010000;28;20057;-62
2024/04/08 06:34:58;;;;;;;11.27;1.92;;;;;;;;;;5010158;28;20408;-63
2024/04/08 06:37:24;;;;;;;9.63;1.70;;;;;;;;;;5010230;28;20044;-62
2024/04/08 06:39:51;;;;;;;10.57;2.42;;;;;;;;;;5015448;28;20125;-61
2024/04/08 06:42:19;;;;;;;10.00;2.63;;;;;;;;;;5009172;28;20033;-63
2024/04/08 06:44:52;;;;;;;10.68;1.90;;;;;;;;;;5008533;28;20045;-63
2024/04/08 06:47:19;;;;;;;9.05;2.10;;;;;;;;;;5011541;28;20057;-63
2024/04/08 06:49:46;;;;;;;7.55;1.90;;;;;;;;;;5014667;28;20037;-65
2024/04/08 06:52:12;;;;;;;8.57;1.90;;;;;;;;;;5010399;28;20050;-64
2024/04/08 06:54:43;;;;;;;13.32;2.65;;;;;;;;;;5007204;28;20033;-64
2024/04/08 06:57:09;;;;;;;5.95;1.60;;;;;;;;;;5006832;28;20030;-63
2024/04/08 06:59:35;;;;;;;12.05;2.63;;;;;;;;;;5008177;28;20045;-63
2024/04/08 07:02:04;;;;;;;14.00;2.25;;;;;;;;;;5007083;28;20128;-63
2024/04/08 07:04:30;;;;;;;10.15;2.17;;;;;;;;;;5007283;28;20061;-63
2024/04/08 07:06:56;;;;;;;9.38;1.67;;;;;;;;;;5009549;28;20108;-63
2024/04/08 07:09:26;;;;;;;5.60;1.50;;;;;;;;;;5008723;28;20041;-63
2024/04/08 07:11:52;;;;;;;9.15;2.05;;;;;;;;;;5007581;28;20049;-62
2024/04/08 07:14:18;;;;;;;7.25;2.00;;;;;;;;;;5010818;28;20053;-62
2024/04/08 07:16:45;;;;;;;12.13;2.40;;;;;;;;;;5009537;28;20250;-63
2024/04/08 07:19:11;;;;;;;10.65;2.70;;;;;;;;;;5011426;28;20042;-62
2024/04/08 07:21:37;;;;;;;12.00;2.70;;;;;;;;;;5010367;28;20045;-63
2024/04/08 07:24:04;;;;;;;16.88;2.67;;;;;;;;;;5010452;28;20064;-63
2024/04/08 07:26:30;;;;;;;16.40;3.10;;;;;;;;;;5010056;28;20042;-62
2024/04/08 07:28:56;;;;;;;16.42;2.88;;;;;;;;;;5014303;28;20505;-62
2024/04/08 07:31:22;;;;;;;14.82;3.30;;;;;;;;;;5012017;28;20056;-63
2024/04/08 07:33:48;;;;;;;17.10;3.22;;;;;;;;;;5007114;28;20033;-62
2024/04/08 07:36:14;;;;;;;13.32;2.83;;;;;;;;;;5005971;28;20410;-63
2024/04/08 07:38:40;;;;;;;13.20;2.88;;;;;;;;;;5009675;28;20048;-62
2024/04/08 07:41:07;;;;;;;18.35;3.00;;;;;;;;;;5009961;28;20037;-63
2024/04/08 07:43:34;;;;;;;14.90;3.05;;;;;;;;;;5011704;28;20608;-64
2024/04/08 07:46:00;;;;;;;15.13;3.63;;;;;;;;;;5012196;28;20058;-63
2024/04/08 07:48:27;;;;;;;14.07;2.85;;;;;;;;;;5009523;28;20045;-63
2024/04/08 07:50:56;;;;;;;17.42;3.33;;;;;;;;;;5013587;28;20052;-63
2024/04/08 07:53:22;;;;;;;13.82;3.17;;;;;;;;;;5007783;28;20041;-62
2024/04/08 07:55:48;;;;;;;12.10;2.80;;;;;;;;;;5004434;28;20045;-63
2024/04/08 07:58:14;;;;;;;8.82;2.55;;;;;;;;;;5008659;28;20051;-63
2024/04/08 08:00:40;;;;;;;18.52;3.72;;;;;;;;;;5007643;28;20477;-63
2024/04/08 08:03:06;;;;;;;12.57;3.25;;;;;;;;;;5006503;28;20050;-64
2024/04/08 08:05:32;;;;;;;13.18;3.63;;;;;;;;;;5005990;28;21430;-63
2024/04/08 08:08:01;;;;;;;16.10;2.80;;;;;;;;;;5008261;28;20409;-63
2024/04/08 08:10:28;;;;;;;15.40;2.83;;;;;;;;;;5011851;28;20050;-63
2024/04/08 08:12:54;;;;;;;11.25;2.40;;;;;;;;;;5012952;28;20409;-64
2024/04/08 08:15:21;;;;;;;11.27;2.17;;;;;;;;;;5013484;28;20046;-63
2024/04/08 08:17:49;;;;;;;16.95;2.60;;;;;;;;;;5012399;28;20041;-62
2024/04/08 08:20:16;;;;;;;12.88;2.65;;;;;;;;;;5017709;28;20377;-63
2024/04/08 08:22:42;;;;;;;14.35;2.50;;;;;;;;;;5012327;28;20057;-63
2024/04/08 08:25:09;;;;;;;16.85;2.92;;;;;;;;;;5014904;28;20061;-63
2024/04/08 08:27:35;;;;;;;15.10;2.60;;;;;;;;;;5006978;28;20063;-63
2024/04/08 08:30:02;;;;;;;12.43;2.53;;;;;;;;;;5016248;28;20037;-64
2024/04/08 08:32:28;;;;;;;12.40;2.88;;;;;;;;;;5010748;28;20080;-64
2024/04/08 08:36:12;;;;;;;15.18;3.25;;;;;;;;;;5427641;26;20430;-66
2024/04/08 08:38:38;;;;;;;17.63;2.80;;;;;;;;;;5432865;26;20039;-62
2024/04/08 08:41:06;;;;;;;14.52;2.70;;;;;;;;;;5411606;26;20384;-62
2024/04/08 08:43:33;;;;;;;10.68;2.88;;;;;;;;;;5374862;26;20048;-63
2024/04/08 08:46:00;;;;;;;11.80;2.80;;;;;;;;;;5405955;26;20044;-62
2024/04/08 08:48:26;;;;;;;13.55;2.70;;;;;;;;;;5413796;26;20032;-62
2024/04/08 08:50:52;;;;;;;13.27;2.65;;;;;;;;;;5400802;26;20039;-64
2024/04/08 08:53:18;;;;;;;13.55;2.58;;;;;;;;;;5400548;26;20032;-63
2024/04/08 08:55:44;;;;;;;15.38;2.40;;;;;;;;;;5405191;26;20040;-61
2024/04/08 08:58:13;;;;;;;14.20;2.38;;;;;;;;;;5399611;26;20028;-62
2024/04/08 09:00:40;;;;;;;8.85;2.30;;;;;;;;;;5401914;26;20039;-64
2024/04/08 09:03:16;;;;;;;9.50;2.35;;;;;;;;;;5400113;26;20031;-63
2024/04/08 09:05:43;;;;;;;14.25;2.42;;;;;;;;;;5401612;26;20039;-66
2024/04/08 09:08:09;;;;;;;10.98;2.28;;;;;;;;;;5407042;26;20385;-66
2024/04/08 09:10:45;;;;;;;11.10;2.63;;;;;;;;;;5405861;26;20040;-63
2024/04/08 09:13:21;;;;;;;11.75;2.90;;;;;;;;;;5394912;26;20383;-62
2024/04/08 09:15:50;;;;;;;10.75;3.20;;;;;;;;;;5413514;26;20043;-64
2024/04/08 09:18:18;;;;;;;13.00;2.38;;;;;;;;;;5419035;26;20051;-62
2024/04/08 09:20:44;;;;;;;13.13;2.20;;;;;;;;;;5424658;26;20044;-63
2024/04/08 09:23:11;;;;;;;11.48;2.33;;;;;;;;;;5420138;26;20034;-62
2024/04/08 09:25:37;;;;;;;13.23;2.03;;;;;;;;;;5402281;26;20499;-62
2024/04/08 09:28:04;;;;;;;11.95;2.17;;;;;;;;;;5406416;26;20004;-63
2024/04/08 09:30:30;;;;;;;16.90;2.15;;;;;;;;;;5414256;26;20039;-63
2024/04/08 09:32:57;;;;;;;17.55;3.45;;;;;;;;;;5429079;26;20034;-64
2024/04/08 09:35:25;;;;;;;9.98;2.03;;;;;;;;;;5410023;26;20040;-63
2024/04/08 09:37:55;;;;;;;16.52;2.88;;;;;;;;;;5403786;26;20035;-63
2024/04/08 09:40:24;;;;;;;17.42;3.10;;;;;;;;;;5410678;26;20036;-63
2024/04/08 09:42:51;;;;;;;13.35;3.00;;;;;;;;;;5410755;26;20075;-64
2024/04/08 09:45:19;;;;;;;20.75;2.92;;;;;;;;;;5409050;26;20036;-63
2024/04/08 09:47:45;;;;;;;15.27;3.08;;;;;;;;;;5398862;26;20118;-63
2024/04/08 09:50:12;;;;;;;8.68;2.40;;;;;;;;;;5396921;26;20044;-63
2024/04/08 09:52:39;;;;;;;20.98;3.03;;;;;;;;;;5399695;26;20035;-63
2024/04/08 09:55:09;;;;;;;17.35;3.00;;;;;;;;;;5394595;26;20384;-64
2024/04/08 09:57:44;;;;;;;16.27;2.58;;;;;;;;;;5383310;26;20036;-64
2024/04/08 10:00:15;;;;;;;16.70;2.80;;;;;;;;;;5384810;26;20043;-65
2024/04/08 10:02:46;;;;;;;18.60;2.20;;;;;;;;;;5407127;26;20056;-63
2024/04/08 10:05:16;;;;;;;15.35;2.85;;;;;;;;;;5406342;26;20344;-63
2024/04/08 10:07:43;;;;;;;10.82;2.97;;;;;;;;;;5397707;26;20031;-64
2024/04/08 10:10:12;;;;;;;17.73;3.08;;;;;;;;;;5397330;26;20063;-64
2024/04/08 10:12:40;;;;;;;18.20;3.25;;;;;;;;;;5387764;26;20032;-63
2024/04/08 10:15:17;;;;;;;9.30;2.33;;;;;;;;;;5391302;26;20015;-63
2024/04/08 10:17:43;;;;;;;17.77;2.30;;;;;;;;;;5401173;26;20024;-63
2024/04/08 10:20:15;;;;;;;19.80;2.72;;;;;;;;;;5413018;26;20032;-63
2024/04/08 10:22:41;;;;;;;20.27;2.55;;;;;;;;;;5389164;26;20036;-64
2024/04/08 10:25:29;;;;;;;20.77;2.42;;;;;;;;;;5401663;26;20027;-64
2024/04/08 10:28:11;;;;;;;21.13;2.47;;;;;;;;;;5387621;26;20378;-64
2024/04/08 10:30:39;;;;;;;18.17;2.50;;;;;;;;;;5384100;26;20040;-63
2024/04/08 10:33:06;;;;;;;14.90;2.30;;;;;;;;;;5392092;26;20698;-63
2024/04/08 10:35:32;;;;;;;16.13;2.90;;;;;;;;;;5393498;26;20381;-63
2024/04/08 10:37:58;;;;;;;16.63;2.85;;;;;;;;;;5401321;26;20367;-64
2024/04/08 10:40:24;;;;;;;22.70;2.50;;;;;;;;;;5401504;26;20385;-64
2024/04/08 10:42:51;;;;;;;16.75;2.72;;;;;;;;;;5396110;26;20033;-64
2024/04/08 10:45:19;;;;;;;16.42;2.40;;;;;;;;;;5397082;26;20743;-64
2024/04/08 10:47:46;;;;;;;13.23;2.07;;;;;;;;;;5406523;26;20042;-65
2024/04/08 10:50:12;;;;;;;13.98;2.70;;;;;;;;;;5381507;26;20027;-66
2024/04/08 10:52:40;;;;;;;17.40;2.40;;;;;;;;;;5384046;26;20052;-65
2024/04/08 10:55:08;;;;;;;19.60;3.50;;;;;;;;;;5388053;26;20392;-64
2024/04/08 10:57:35;;;;;;;22.88;2.83;;;;;;;;;;5383029;26;20636;-63
2024/04/08 11:00:03;;;;;;;17.92;3.03;;;;;;;;;;5397714;26;20040;-64
2024/04/08 11:02:30;;;;;;;26.85;2.80;;;;;;;;;;5384830;26;20032;-64
2024/04/08 11:04:56;;;;;;;16.10;2.78;;;;;;;;;;5386393;26;20048;-64
2024/04/08 11:07:22;;;;;;;21.35;3.10;;;;;;;;;;5390470;26;20027;-64
2024/04/08 11:09:49;;;;;;;23.23;2.50;;;;;;;;;;5384949;26;20040;-64
2024/04/08 11:12:15;;;;;;;23.55;2.65;;;;;;;;;;5385187;26;20048;-65
2024/04/08 11:14:42;;;;;;;16.25;2.53;;;;;;;;;;5406254;26;20040;-63
2024/04/08 11:17:09;;;;;;;23.52;3.00;;;;;;;;;;5407128;26;20386;-64
2024/04/08 11:19:38;;;;;;;20.17;3.00;;;;;;;;;;5410263;26;20488;-63
2024/04/08 11:22:08;;;;;;;22.65;3.53;;;;;;;;;;5360320;26;20041;-64
2024/04/08 11:24:40;;;;;;;22.90;2.80;;;;;;;;;;5387853;26;20033;-64
2024/04/08 11:27:09;;;;;;;25.27;3.20;;;;;;;;;;5411801;26;20473;-64
2024/04/08 11:29:35;;;;;;;15.45;2.67;;;;;;;;;;5401634;26;20044;-64
2024/04/08 11:32:02;;;;;;;20.55;3.20;;;;;;;;;;5398726;26;20396;-63
2024/04/08 11:34:28;;;;;;;24.25;4.13;;;;;;;;;;5390280;26;20028;-64
2024/04/08 11:36:54;;;;;;;22.73;3.17;;;;;;;;;;5405140;26;20031;-64
2024/04/08 11:39:20;;;;;;;18.98;2.80;;;;;;;;;;5393590;26;20381;-64
2024/04/08 11:41:46;;;;;;;23.65;3.00;;;;;;;;;;5410254;26;20031;-65
2024/04/08 11:44:12;;;;;;;24.88;2.80;;;;;;;;;;5396532;26;20644;-64
2024/04/08 11:46:38;;;;;;;28.30;3.65;;;;;;;;;;5406613;26;20024;-64
2024/04/08 11:49:05;;;;;;;20.88;2.70;;;;;;;;;;5374545;26;20012;-65
2024/04/08 11:51:32;;;;;;;29.77;3.15;;;;;;;;;;5389089;26;20052;-64
2024/04/08 11:53:58;;;;;;;25.60;3.10;;;;;;;;;;5382920;26;20032;-64
2024/04/08 11:56:24;;;;;;;19.30;2.92;;;;;;;;;;5383206;26;20008;-64
2024/04/08 11:58:50;;;;;;;22.40;4.05;;;;;;;;;;5379500;26;20032;-66
2024/04/08 12:01:16;;;;;;;21.27;3.80;;;;;;;;;;5377408;26;20394;-64
2024/04/08 12:03:42;;;;;;;28.40;3.58;;;;;;;;;;5393064;26;20051;-64
2024/04/08 12:06:10;;;;;;;28.52;3.33;;;;;;;;;;5395641;26;20051;-65
2024/04/08 12:08:36;;;;;;;21.92;2.75;;;;;;;;;;5385626;26;20024;-65
2024/04/08 12:11:03;;;;;;;19.45;2.63;;;;;;;;;;5384948;26;20439;-63
2024/04/08 12:13:29;;;;;;;20.73;3.40;;;;;;;;;;5388870;26;20024;-65
2024/04/08 12:15:55;;;;;;;20.33;3.10;;;;;;;;;;5405271;26;20004;-64
2024/04/08 12:18:21;;;;;;;23.83;3.92;;;;;;;;;;5399443;26;22077;-66
2024/04/08 12:20:47;;;;;;;20.98;2.60;;;;;;;;;;5380257;26;20036;-64
2024/04/08 12:23:13;;;;;;;25.65;3.60;;;;;;;;;;5397179;26;20052;-64
2024/04/08 12:25:40;;;;;;;21.48;3.60;;;;;;;;;;5383540;26;20079;-64
2024/04/08 12:28:08;;;;;;;22.83;3.40;;;;;;;;;;5400405;26;20035;-64
2024/04/08 12:30:35;;;;;;;20.02;3.15;;;;;;;;;;5390610;26;20036;-64
2024/04/08 12:33:01;;;;;;;28.25;3.85;;;;;;;;;;5392515;26;20036;-63
2024/04/08 12:35:28;;;;;;;30.38;3.28;;;;;;;;;;5392611;26;20036;-64
2024/04/08 12:37:54;;;;;;;29.92;3.80;;;;;;;;;;5394308;26;20041;-64
2024/04/08 12:40:20;;;;;;;21.17;3.70;;;;;;;;;;5392448;26;20048;-65
2024/04/08 12:42:46;;;;;;;20.80;3.10;;;;;;;;;;5396680;26;20029;-64
2024/04/08 12:45:13;;;;;;;25.90;3.28;;;;;;;;;;5393106;26;20040;-64
2024/04/08 12:47:39;;;;;;;25.55;3.33;;;;;;;;;;5392126;26;20374;-63
2024/04/08 12:50:07;;;;;;;23.48;3.28;;;;;;;;;;5389149;26;20039;-64
2024/04/08 12:52:33;;;;;;;25.83;3.67;;;;;;;;;;5381459;26;20057;-64
2024/04/08 12:55:00;;;;;;;24.80;3.70;;;;;;;;;;5384976;26;20035;-64
2024/04/08 12:57:26;;;;;;;27.83;3.67;;;;;;;;;;5378667;26;20379;-65
2024/04/08 12:59:52;;;;;;;28.48;3.28;;;;;;;;;;5385468;26;20032;-64
2024/04/08 13:02:23;;;;;;;28.00;3.67;;;;;;;;;;5382565;26;20054;-65
2024/04/08 13:04:50;;;;;;;22.75;3.58;;;;;;;;;;5375197;26;20024;-65
2024/04/08 13:07:16;;;;;;;30.10;3.85;;;;;;;;;;5387153;26;20499;-65
2024/04/08 13:09:42;;;;;;;26.23;3.53;;;;;;;;;;5369396;26;20028;-64
2024/04/08 13:12:08;;;;;;;29.25;3.75;;;;;;;;;;5396182;26;20499;-65
2024/04/08 13:14:34;;;;;;;25.25;3.58;;;;;;;;;;5406723;26;20040;-65
2024/04/08 13:17:00;;;;;;;27.13;4.10;;;;;;;;;;5403410;26;20043;-66
2024/04/08 13:19:26;;;;;;;35.03;5.00;;;;;;;;;;5385523;26;20025;-64
2024/04/08 13:21:52;;;;;;;30.48;4.10;;;;;;;;;;5392410;26;20395;-64
2024/04/08 13:24:18;;;;;;;33.85;4.45;;;;;;;;;;5392222;26;20014;-66
2024/04/08 13:26:46;;;;;;;28.98;4.45;;;;;;;;;;5402533;26;20039;-65
2024/04/08 13:29:13;;;;;;;35.22;4.72;;;;;;;;;;5387915;26;20026;-66
2024/04/08 13:31:39;;;;;;;33.63;4.88;;;;;;;;;;5390269;26;20035;-63
2024/04/08 13:34:05;;;;;;;37.28;4.47;;;;;;;;;;5396638;26;20036;-64
2024/04/08 13:36:32;;;;;;;30.20;4.90;;;;;;;;;;5392147;26;20044;-64
2024/04/08 13:38:58;;;;;;;28.35;5.03;;;;;;;;;;5403229;26;20023;-65
2024/04/08 13:41:24;;;;;;;42.25;5.35;;;;;;;;;;5388116;26;20028;-65
2024/04/08 13:43:50;;;;;;;31.83;5.05;;;;;;;;;;5360846;26;20041;-64
2024/04/08 13:46:16;;;;;;;36.10;5.13;;;;;;;;;;5383174;26;20033;-65
2024/04/08 13:48:43;;;;;;;41.35;5.40;;;;;;;;;;5379036;26;20028;-65
2024/04/08 13:51:09;;;;;;;34.78;5.88;;;;;;;;;;5380585;26;20033;-66
2024/04/08 13:53:35;;;;;;;35.85;5.78;;;;;;;;;;5385032;26;20383;-66
2024/04/08 13:56:02;;;;;;;41.38;5.55;;;;;;;;;;5382675;26;20024;-65
2024/04/08 13:58:29;;;;;;;40.28;5.80;;;;;;;;;;5381986;26;20585;-67
2024/04/08 14:00:56;;;;;;;40.42;5.55;;;;;;;;;;5380596;26;20348;-66
2024/04/08 14:03:26;;;;;;;50.58;6.05;;;;;;;;;;5382669;26;20040;-67
2024/04/08 14:05:52;;;;;;;44.10;6.13;;;;;;;;;;5421890;26;20386;-64
2024/04/08 14:08:18;;;;;;;38.45;5.30;;;;;;;;;;5400692;26;20030;-64
2024/04/08 14:10:44;;;;;;;33.80;5.35;;;;;;;;;;5380430;26;20032;-65
2024/04/08 14:13:10;;;;;;;45.53;6.05;;;;;;;;;;5393808;26;20619;-64
2024/04/08 14:15:36;;;;;;;43.80;5.50;;;;;;;;;;5409585;26;20018;-65
2024/04/08 14:18:03;;;;;;;37.53;5.40;;;;;;;;;;5400979;26;20059;-65
2024/04/08 14:20:30;;;;;;;38.47;5.80;;;;;;;;;;5391453;26;20355;-65
2024/04/08 14:22:59;;;;;;;45.03;6.72;;;;;;;;;;5389255;26;20044;-64
2024/04/08 14:25:27;;;;;;;51.90;6.88;;;;;;;;;;5400758;26;20043;-65
2024/04/08 14:27:53;;;;;;;47.38;5.80;;;;;;;;;;5406044;26;20032;-65
2024/04/08 14:30:20;;;;;;;51.15;6.40;;;;;;;;;;5392748;26;20027;-65